createdAt,value
2022-12-18T00:00:29.469Z,9.457500
2022-12-18T00:01:29.547Z,9.457319
2022-12-18T00:02:29.490Z,9.457385
2022-12-18T00:08:15.685Z,9.457261
2022-12-18T00:09:15.670Z,9.457273
2022-12-18T00:20:13.750Z,9.457799
2022-12-18T00:21:13.735Z,9.457602
2022-12-18T00:22:13.738Z,9.457323
2022-12-18T00:23:13.716Z,9.457285
2022-12-18T00:24:13.715Z,9.457223
2022-12-18T00:25:13.725Z,9.457369
2022-12-18T00:26:13.691Z,9.457497
2022-12-18T00:27:13.691Z,9.457614
2022-12-18T00:28:13.678Z,9.457463
2022-12-18T00:29:13.668Z,9.457351
2022-12-18T00:30:13.662Z,9.457278
2022-12-18T00:31:13.704Z,9.457212
2022-12-18T00:32:13.651Z,9.457276
2022-12-18T00:33:13.624Z,9.457242
2022-12-18T00:34:13.607Z,9.457054
2022-12-18T00:35:13.608Z,9.457387
2022-12-18T00:36:13.611Z,9.456997
2022-12-18T00:37:19.724Z,9.456751
2022-12-18T00:38:15.587Z,9.456840
2022-12-18T00:39:13.566Z,9.457008
2022-12-18T00:40:13.566Z,9.456950
2022-12-18T00:41:13.548Z,9.457115
2022-12-18T00:42:13.558Z,9.457362
2022-12-18T00:43:13.536Z,9.457343
2022-12-18T00:44:13.524Z,9.457294
2022-12-18T00:45:13.537Z,9.457217
2022-12-18T00:46:13.592Z,9.457096
2022-12-18T00:47:13.520Z,9.457038
2022-12-18T00:48:13.490Z,9.457405
2022-12-18T00:49:13.490Z,9.457601
2022-12-18T01:22:59.465Z,9.462033
2022-12-18T01:23:59.445Z,9.460743
2022-12-18T01:24:59.426Z,9.460743
2022-12-18T01:25:59.416Z,9.459923
2022-12-18T01:26:59.429Z,9.459923
2022-12-18T01:27:59.401Z,9.459923
2022-12-18T01:28:59.398Z,9.459923
2022-12-18T01:29:59.386Z,9.459923
2022-12-18T01:30:59.362Z,9.459923
2022-12-18T01:31:59.420Z,9.457343
2022-12-18T01:32:59.357Z,9.457546
2022-12-18T01:33:59.355Z,9.457487
2022-12-18T01:34:59.339Z,9.457324
2022-12-18T01:35:59.334Z,9.457161
2022-12-18T01:36:59.343Z,9.457112
2022-12-18T01:37:59.321Z,9.457315
2022-12-18T01:38:59.301Z,9.457301
2022-12-18T01:39:59.296Z,9.457247
2022-12-18T01:40:59.286Z,9.457418
2022-12-18T01:41:59.313Z,9.457574
2022-12-18T02:16:11.568Z,9.457893
2022-12-18T02:17:11.526Z,9.457390
2022-12-18T02:18:11.505Z,9.457067
2022-12-18T02:19:11.488Z,9.456924
2022-12-18T02:20:11.508Z,9.456856
2022-12-18T02:21:11.488Z,9.456988
2022-12-18T02:22:11.483Z,9.457035
2022-12-18T02:23:11.451Z,9.456961
2022-12-18T02:24:11.450Z,9.456954
2022-12-18T02:25:11.434Z,9.457151
2022-12-18T02:26:11.442Z,9.457170
2022-12-18T02:27:11.427Z,9.457143
2022-12-18T02:28:11.409Z,9.457313
2022-12-18T02:29:11.500Z,9.457252
2022-12-18T02:30:11.404Z,9.457544
2022-12-18T02:31:11.439Z,9.457778
2022-12-18T03:59:03.933Z,9.457329
2022-12-18T04:00:03.925Z,9.457285
2022-12-18T04:01:03.920Z,9.457279
2022-12-18T04:02:04.133Z,9.457322
2022-12-18T04:03:04.112Z,9.457279
2022-12-18T04:04:03.919Z,9.457355
2022-12-18T04:05:03.876Z,9.457306
2022-12-18T04:06:03.867Z,9.457241
2022-12-18T04:07:03.855Z,9.457442
2022-12-18T04:08:03.861Z,9.457394
2022-12-18T04:09:03.851Z,9.457206
2022-12-18T04:10:03.836Z,9.457302
2022-12-18T04:11:03.827Z,9.457114
2022-12-18T04:12:03.812Z,9.456945
2022-12-18T04:13:03.816Z,9.456939
2022-12-18T04:14:07.183Z,9.457478
2022-12-18T04:15:04.792Z,9.457334
2022-12-18T04:16:03.824Z,9.457173
2022-12-18T04:17:03.774Z,9.457248
2022-12-18T04:18:03.772Z,9.457453
2022-12-18T04:19:05.503Z,9.457251
2022-12-18T04:20:03.751Z,9.457085
2022-12-18T05:31:42.006Z,9.457187
2022-12-18T05:32:41.943Z,9.457294
2022-12-18T05:33:42.251Z,9.457232
2022-12-18T05:34:41.909Z,9.457330
2022-12-18T05:35:41.899Z,9.457253
2022-12-18T05:36:42.904Z,9.457237
2022-12-18T05:37:43.497Z,9.457321
2022-12-18T05:38:42.881Z,9.457293
2022-12-18T05:39:41.874Z,9.457253
2022-12-18T05:40:41.859Z,9.457231
2022-12-18T05:41:41.864Z,9.457330
2022-12-18T05:42:41.838Z,9.457373
2022-12-18T05:43:42.498Z,9.457216
2022-12-18T05:44:41.830Z,9.457289
2022-12-18T05:45:41.823Z,9.457396
2022-12-18T05:46:41.864Z,9.457329
2022-12-18T05:47:41.809Z,9.457276
2022-12-18T05:48:41.811Z,9.457247
2022-12-18T05:49:41.781Z,9.457387
2022-12-18T05:50:41.772Z,9.457255
2022-12-18T05:51:41.767Z,9.457228
2022-12-18T05:52:41.759Z,9.457317
2022-12-18T05:53:42.106Z,9.457278
2022-12-18T05:54:41.744Z,9.457383
2022-12-18T05:55:41.736Z,9.457306
2022-12-18T05:56:47.040Z,9.457545
2022-12-18T05:57:43.713Z,9.457169
2022-12-18T05:58:41.712Z,9.457392
2022-12-18T05:59:41.698Z,9.457237
2022-12-18T06:00:41.689Z,9.457257
2022-12-18T06:01:41.816Z,9.457296
2022-12-18T06:02:41.748Z,9.457265
2022-12-18T06:03:42.142Z,9.457299
2022-12-18T06:04:41.645Z,9.457258
2022-12-18T06:05:41.645Z,9.457337
2022-12-18T06:06:41.637Z,9.457254
2022-12-18T06:07:41.620Z,9.457427
2022-12-18T06:08:46.164Z,9.457330
2022-12-18T06:09:43.702Z,9.457246
2022-12-18T06:10:41.595Z,9.457202
2022-12-18T06:11:41.588Z,9.457195
2022-12-18T06:12:41.582Z,9.457187
2022-12-18T06:14:13.498Z,9.457171
2022-12-18T06:14:41.569Z,9.457155
2022-12-18T06:15:41.565Z,9.457273
2022-12-18T06:16:41.574Z,9.457368
2022-12-18T06:17:41.547Z,9.457334
2022-12-18T06:18:41.547Z,9.457256
2022-12-18T06:19:41.533Z,9.457273
2022-12-18T06:20:41.519Z,9.457378
2022-12-18T06:21:41.496Z,9.457457
2022-12-18T06:22:41.499Z,9.457392
2022-12-18T06:23:41.846Z,9.457368
2022-12-18T06:24:41.490Z,9.457331
2022-12-18T06:25:41.566Z,9.457333
2022-12-18T06:26:41.470Z,9.457460
2022-12-18T06:27:41.446Z,9.457264
2022-12-18T06:28:41.467Z,9.457381
2022-12-18T06:29:41.432Z,9.457250
2022-12-18T06:30:41.432Z,9.457227
2022-12-18T06:31:41.478Z,9.457243
2022-12-18T06:32:41.410Z,9.457396
2022-12-18T06:33:41.827Z,9.457379
2022-12-18T06:34:41.437Z,9.457427
2022-12-18T06:35:41.388Z,9.457213
2022-12-18T06:36:41.380Z,9.457272
2022-12-18T06:37:41.363Z,9.457387
2022-12-18T06:38:41.719Z,9.457171
2022-12-18T06:39:41.355Z,9.457294
2022-12-18T06:40:41.349Z,9.457366
2022-12-18T06:41:41.421Z,9.457397
2022-12-18T06:42:41.326Z,9.457358
2022-12-18T06:43:41.751Z,9.457249
2022-12-18T06:44:41.308Z,9.457332
2022-12-18T06:45:41.379Z,9.457238
2022-12-18T06:46:41.296Z,9.457389
2022-12-18T06:47:41.286Z,9.457306
2022-12-18T07:19:27.308Z,9.458066
2022-12-18T07:20:27.281Z,9.457380
2022-12-18T07:21:27.272Z,9.457779
2022-12-18T07:22:27.250Z,9.457669
2022-12-18T07:23:27.245Z,9.457523
2022-12-18T07:24:27.262Z,9.457436
2022-12-18T07:25:27.230Z,9.457337
2022-12-18T07:26:27.214Z,9.457350
2022-12-18T07:27:27.204Z,9.457264
2022-12-18T07:28:27.203Z,9.457481
2022-12-18T07:29:27.293Z,9.457701
2022-12-18T07:30:27.171Z,9.457734
2022-12-18T07:31:27.270Z,9.457561
2022-12-18T07:32:27.172Z,9.457491
2022-12-18T07:33:27.176Z,9.457565
2022-12-18T07:34:27.160Z,9.457413
2022-12-18T07:35:27.158Z,9.457408
2022-12-18T07:36:27.138Z,9.456881
2022-12-18T07:37:27.210Z,9.456930
2022-12-18T07:38:27.105Z,9.457198
2022-12-18T07:39:27.123Z,9.457604
2022-12-18T07:40:27.107Z,9.457292
2022-12-18T07:41:27.091Z,9.457407
2022-12-18T07:42:27.071Z,9.457265
2022-12-18T07:43:27.074Z,9.457190
2022-12-18T07:44:27.110Z,9.457454
2022-12-18T07:45:27.051Z,9.457367
2022-12-18T07:46:27.124Z,9.457268
2022-12-18T07:47:27.051Z,9.457229
2022-12-18T07:48:27.050Z,9.457222
2022-12-18T07:49:27.053Z,9.457362
2022-12-18T07:50:27.016Z,9.457257
